sensor_id;sensor_type;location;lat;lon;timestamp;P1;durP1;ratioP1;P2;durP2;ratioP2
80201;SDS011;69521;54.454;9.928;2023-05-07T00:00:37;14.13;;;7.13;;
80201;SDS011;69521;54.454;9.928;2023-05-07T00:03:02;14.10;;;6.38;;
80201;SDS011;69521;54.454;9.928;2023-05-07T00:05:28;18.08;;;7.40;;
80201;SDS011;69521;54.454;9.928;2023-05-07T00:07:53;13.90;;;6.97;;
80201;SDS011;69521;54.454;9.928;2023-05-07T00:10:19;15.95;;;7.07;;
80201;SDS011;69521;54.454;9.928;2023-05-07T00:12:44;14.88;;;6.80;;
80201;SDS011;69521;54.454;9.928;2023-05-07T00:15:10;18.23;;;6.70;;
80201;SDS011;69521;54.454;9.928;2023-05-07T00:17:35;10.45;;;4.70;;
80201;SDS011;69521;54.454;9.928;2023-05-07T00:20:02;16.83;;;7.28;;
80201;SDS011;69521;54.454;9.928;2023-05-07T00:22:28;17.88;;;6.78;;
80201;SDS011;69521;54.454;9.928;2023-05-07T00:24:55;14.25;;;6.70;;
80201;SDS011;69521;54.454;9.928;2023-05-07T00:27:21;14.52;;;6.15;;
80201;SDS011;69521;54.454;9.928;2023-05-07T00:29:46;13.05;;;6.45;;
80201;SDS011;69521;54.454;9.928;2023-05-07T00:32:12;17.65;;;6.13;;
80201;SDS011;69521;54.454;9.928;2023-05-07T00:34:37;13.07;;;7.75;;
80201;SDS011;69521;54.454;9.928;2023-05-07T00:37:04;14.60;;;6.60;;
80201;SDS011;69521;54.454;9.928;2023-05-07T00:39:30;13.70;;;6.53;;
80201;SDS011;69521;54.454;9.928;2023-05-07T00:41:55;21.63;;;6.82;;
80201;SDS011;69521;54.454;9.928;2023-05-07T00:44:20;14.50;;;6.75;;
80201;SDS011;69521;54.454;9.928;2023-05-07T00:46:46;11.25;;;6.00;;
80201;SDS011;69521;54.454;9.928;2023-05-07T00:49:14;14.63;;;6.72;;
80201;SDS011;69521;54.454;9.928;2023-05-07T00:51:40;15.15;;;7.20;;
80201;SDS011;69521;54.454;9.928;2023-05-07T00:54:06;19.10;;;7.10;;
80201;SDS011;69521;54.454;9.928;2023-05-07T00:56:32;17.42;;;7.03;;
80201;SDS011;69521;54.454;9.928;2023-05-07T00:58:58;13.57;;;6.90;;
80201;SDS011;69521;54.454;9.928;2023-05-07T01:01:24;20.58;;;6.85;;
80201;SDS011;69521;54.454;9.928;2023-05-07T01:03:49;13.00;;;6.82;;
80201;SDS011;69521;54.454;9.928;2023-05-07T01:06:14;14.88;;;6.55;;
80201;SDS011;69521;54.454;9.928;2023-05-07T01:08:41;14.65;;;7.30;;
80201;SDS011;69521;54.454;9.928;2023-05-07T01:11:07;14.00;;;7.68;;
80201;SDS011;69521;54.454;9.928;2023-05-07T01:13:34;12.45;;;6.60;;
80201;SDS011;69521;54.454;9.928;2023-05-07T01:16:01;14.65;;;6.80;;
80201;SDS011;69521;54.454;9.928;2023-05-07T01:18:28;17.02;;;7.35;;
80201;SDS011;69521;54.454;9.928;2023-05-07T01:20:55;16.30;;;7.68;;
80201;SDS011;69521;54.454;9.928;2023-05-07T01:23:23;15.85;;;7.22;;
80201;SDS011;69521;54.454;9.928;2023-05-07T01:25:53;15.05;;;8.07;;
80201;SDS011;69521;54.454;9.928;2023-05-07T01:28:19;17.38;;;7.93;;
80201;SDS011;69521;54.454;9.928;2023-05-07T01:30:46;16.75;;;7.57;;
80201;SDS011;69521;54.454;9.928;2023-05-07T01:33:14;17.33;;;7.60;;
80201;SDS011;69521;54.454;9.928;2023-05-07T01:35:45;10.88;;;6.93;;
80201;SDS011;69521;54.454;9.928;2023-05-07T01:38:12;10.15;;;6.70;;
80201;SDS011;69521;54.454;9.928;2023-05-07T01:40:38;15.45;;;8.57;;
80201;SDS011;69521;54.454;9.928;2023-05-07T01:43:03;15.98;;;7.75;;
80201;SDS011;69521;54.454;9.928;2023-05-07T01:45:30;13.13;;;7.43;;
80201;SDS011;69521;54.454;9.928;2023-05-07T01:47:57;13.70;;;8.02;;
80201;SDS011;69521;54.454;9.928;2023-05-07T01:50:24;15.35;;;7.50;;
80201;SDS011;69521;54.454;9.928;2023-05-07T01:52:50;17.58;;;8.15;;
80201;SDS011;69521;54.454;9.928;2023-05-07T01:55:16;14.43;;;7.50;;
80201;SDS011;69521;54.454;9.928;2023-05-07T01:57:41;20.60;;;8.30;;
80201;SDS011;69521;54.454;9.928;2023-05-07T02:00:07;14.52;;;6.88;;
80201;SDS011;69521;54.454;9.928;2023-05-07T02:02:34;15.18;;;7.22;;
80201;SDS011;69521;54.454;9.928;2023-05-07T02:04:59;13.00;;;8.10;;
80201;SDS011;69521;54.454;9.928;2023-05-07T02:07:26;13.65;;;7.32;;
80201;SDS011;69521;54.454;9.928;2023-05-07T02:09:51;13.00;;;8.75;;
80201;SDS011;69521;54.454;9.928;2023-05-07T02:12:17;13.23;;;6.88;;
80201;SDS011;69521;54.454;9.928;2023-05-07T02:14:42;12.20;;;8.23;;
80201;SDS011;69521;54.454;9.928;2023-05-07T02:17:07;11.63;;;8.10;;
80201;SDS011;69521;54.454;9.928;2023-05-07T02:19:33;12.93;;;8.15;;
80201;SDS011;69521;54.454;9.928;2023-05-07T02:21:58;13.48;;;8.10;;
80201;SDS011;69521;54.454;9.928;2023-05-07T02:24:23;12.88;;;7.68;;
80201;SDS011;69521;54.454;9.928;2023-05-07T02:26:49;11.07;;;7.18;;
80201;SDS011;69521;54.454;9.928;2023-05-07T02:29:14;12.38;;;7.75;;
80201;SDS011;69521;54.454;9.928;2023-05-07T02:31:39;11.43;;;8.05;;
80201;SDS011;69521;54.454;9.928;2023-05-07T02:34:05;11.63;;;7.70;;
80201;SDS011;69521;54.454;9.928;2023-05-07T02:36:30;15.07;;;7.70;;
80201;SDS011;69521;54.454;9.928;2023-05-07T02:38:55;12.10;;;7.43;;
80201;SDS011;69521;54.454;9.928;2023-05-07T02:41:21;9.48;;;6.70;;
80201;SDS011;69521;54.454;9.928;2023-05-07T02:43:46;11.02;;;7.00;;
80201;SDS011;69521;54.454;9.928;2023-05-07T02:46:11;15.27;;;7.73;;
80201;SDS011;69521;54.454;9.928;2023-05-07T02:48:37;10.45;;;6.68;;
80201;SDS011;69521;54.454;9.928;2023-05-07T02:51:03;11.40;;;7.03;;
80201;SDS011;69521;54.454;9.928;2023-05-07T02:53:30;12.27;;;7.00;;
80201;SDS011;69521;54.454;9.928;2023-05-07T02:55:56;12.68;;;8.40;;
80201;SDS011;69521;54.454;9.928;2023-05-07T02:58:23;12.45;;;7.50;;
80201;SDS011;69521;54.454;9.928;2023-05-07T03:00:48;10.77;;;7.57;;
80201;SDS011;69521;54.454;9.928;2023-05-07T03:03:14;11.43;;;6.53;;
80201;SDS011;69521;54.454;9.928;2023-05-07T03:05:40;9.45;;;6.25;;
80201;SDS011;69521;54.454;9.928;2023-05-07T03:08:05;12.32;;;6.43;;
80201;SDS011;69521;54.454;9.928;2023-05-07T03:10:31;10.40;;;7.20;;
80201;SDS011;69521;54.454;9.928;2023-05-07T03:12:56;10.60;;;6.72;;
80201;SDS011;69521;54.454;9.928;2023-05-07T03:15:21;10.70;;;6.43;;
80201;SDS011;69521;54.454;9.928;2023-05-07T03:17:47;11.20;;;6.30;;
80201;SDS011;69521;54.454;9.928;2023-05-07T03:20:13;8.73;;;6.50;;
80201;SDS011;69521;54.454;9.928;2023-05-07T03:22:38;10.50;;;7.10;;
80201;SDS011;69521;54.454;9.928;2023-05-07T03:25:04;11.43;;;6.95;;
80201;SDS011;69521;54.454;9.928;2023-05-07T03:27:30;9.65;;;6.25;;
80201;SDS011;69521;54.454;9.928;2023-05-07T03:29:55;10.77;;;6.18;;
80201;SDS011;69521;54.454;9.928;2023-05-07T03:32:21;11.77;;;6.70;;
80201;SDS011;69521;54.454;9.928;2023-05-07T03:34:46;11.45;;;6.50;;
80201;SDS011;69521;54.454;9.928;2023-05-07T03:37:11;10.03;;;6.73;;
80201;SDS011;69521;54.454;9.928;2023-05-07T03:39:36;9.90;;;6.40;;
80201;SDS011;69521;54.454;9.928;2023-05-07T03:42:02;11.55;;;6.30;;
80201;SDS011;69521;54.454;9.928;2023-05-07T03:44:28;9.85;;;6.20;;
80201;SDS011;69521;54.454;9.928;2023-05-07T03:46:53;10.00;;;5.95;;
80201;SDS011;69521;54.454;9.928;2023-05-07T03:49:19;11.45;;;6.60;;
80201;SDS011;69521;54.454;9.928;2023-05-07T03:51:44;10.07;;;7.47;;
80201;SDS011;69521;54.454;9.928;2023-05-07T03:54:10;8.75;;;6.25;;
80201;SDS011;69521;54.454;9.928;2023-05-07T03:56:35;10.48;;;6.55;;
80201;SDS011;69521;54.454;9.928;2023-05-07T03:59:00;8.33;;;5.20;;
80201;SDS011;69521;54.454;9.928;2023-05-07T04:01:26;10.25;;;6.65;;
80201;SDS011;69521;54.454;9.928;2023-05-07T04:03:52;9.68;;;6.22;;
80201;SDS011;69521;54.454;9.928;2023-05-07T04:06:17;9.38;;;6.75;;
80201;SDS011;69521;54.454;9.928;2023-05-07T04:08:43;9.05;;;6.00;;
80201;SDS011;69521;54.454;9.928;2023-05-07T04:11:08;9.18;;;5.90;;
80201;SDS011;69521;54.454;9.928;2023-05-07T04:13:34;8.90;;;5.97;;
80201;SDS011;69521;54.454;9.928;2023-05-07T04:16:00;10.23;;;6.28;;
80201;SDS011;69521;54.454;9.928;2023-05-07T04:18:27;8.18;;;5.50;;
80201;SDS011;69521;54.454;9.928;2023-05-07T04:20:52;8.75;;;5.78;;
80201;SDS011;69521;54.454;9.928;2023-05-07T04:23:18;7.78;;;5.78;;
80201;SDS011;69521;54.454;9.928;2023-05-07T04:25:43;9.50;;;6.38;;
80201;SDS011;69521;54.454;9.928;2023-05-07T04:28:08;7.47;;;5.20;;
80201;SDS011;69521;54.454;9.928;2023-05-07T04:30:33;12.97;;;5.67;;
80201;SDS011;69521;54.454;9.928;2023-05-07T04:32:59;7.57;;;5.33;;
80201;SDS011;69521;54.454;9.928;2023-05-07T04:35:24;8.70;;;5.95;;
80201;SDS011;69521;54.454;9.928;2023-05-07T04:37:49;8.90;;;5.82;;
80201;SDS011;69521;54.454;9.928;2023-05-07T04:40:15;8.55;;;5.85;;
80201;SDS011;69521;54.454;9.928;2023-05-07T04:42:40;7.00;;;5.00;;
80201;SDS011;69521;54.454;9.928;2023-05-07T04:45:06;7.97;;;5.70;;
80201;SDS011;69521;54.454;9.928;2023-05-07T04:47:31;10.93;;;6.00;;
80201;SDS011;69521;54.454;9.928;2023-05-07T04:49:57;8.07;;;6.05;;
80201;SDS011;69521;54.454;9.928;2023-05-07T04:52:23;8.13;;;5.65;;
80201;SDS011;69521;54.454;9.928;2023-05-07T04:54:48;10.13;;;6.47;;
80201;SDS011;69521;54.454;9.928;2023-05-07T04:57:13;7.80;;;5.33;;
80201;SDS011;69521;54.454;9.928;2023-05-07T04:59:39;10.18;;;6.13;;
80201;SDS011;69521;54.454;9.928;2023-05-07T05:02:05;9.43;;;6.82;;
80201;SDS011;69521;54.454;9.928;2023-05-07T05:04:30;10.02;;;5.95;;
80201;SDS011;69521;54.454;9.928;2023-05-07T05:06:56;10.27;;;6.35;;
80201;SDS011;69521;54.454;9.928;2023-05-07T05:09:21;11.55;;;6.25;;
80201;SDS011;69521;54.454;9.928;2023-05-07T05:11:46;10.93;;;5.88;;
80201;SDS011;69521;54.454;9.928;2023-05-07T05:14:12;11.43;;;6.30;;
80201;SDS011;69521;54.454;9.928;2023-05-07T05:16:37;8.68;;;5.97;;
80201;SDS011;69521;54.454;9.928;2023-05-07T05:19:02;9.13;;;6.13;;
80201;SDS011;69521;54.454;9.928;2023-05-07T05:21:28;10.65;;;6.78;;
80201;SDS011;69521;54.454;9.928;2023-05-07T05:23:53;8.60;;;5.97;;
80201;SDS011;69521;54.454;9.928;2023-05-07T05:26:19;10.15;;;5.65;;
80201;SDS011;69521;54.454;9.928;2023-05-07T05:28:46;7.53;;;5.20;;
80201;SDS011;69521;54.454;9.928;2023-05-07T05:31:11;7.93;;;5.10;;
80201;SDS011;69521;54.454;9.928;2023-05-07T05:33:36;9.70;;;5.78;;
80201;SDS011;69521;54.454;9.928;2023-05-07T05:36:02;8.93;;;5.50;;
80201;SDS011;69521;54.454;9.928;2023-05-07T05:38:27;7.85;;;5.47;;
80201;SDS011;69521;54.454;9.928;2023-05-07T05:40:53;8.83;;;5.90;;
80201;SDS011;69521;54.454;9.928;2023-05-07T05:43:18;7.17;;;5.07;;
80201;SDS011;69521;54.454;9.928;2023-05-07T05:45:43;8.90;;;5.40;;
80201;SDS011;69521;54.454;9.928;2023-05-07T05:48:09;9.93;;;5.45;;
80201;SDS011;69521;54.454;9.928;2023-05-07T05:50:34;9.90;;;5.70;;
80201;SDS011;69521;54.454;9.928;2023-05-07T05:53:02;8.48;;;5.47;;
80201;SDS011;69521;54.454;9.928;2023-05-07T05:55:28;9.15;;;5.40;;
80201;SDS011;69521;54.454;9.928;2023-05-07T05:57:53;9.25;;;5.80;;
80201;SDS011;69521;54.454;9.928;2023-05-07T06:00:18;7.63;;;5.47;;
80201;SDS011;69521;54.454;9.928;2023-05-07T06:02:47;8.52;;;5.78;;
80201;SDS011;69521;54.454;9.928;2023-05-07T06:05:12;8.65;;;5.32;;
80201;SDS011;69521;54.454;9.928;2023-05-07T06:07:37;8.10;;;5.50;;
80201;SDS011;69521;54.454;9.928;2023-05-07T06:10:03;7.93;;;5.40;;
80201;SDS011;69521;54.454;9.928;2023-05-07T06:12:28;9.75;;;4.78;;
80201;SDS011;69521;54.454;9.928;2023-05-07T06:14:54;10.85;;;6.10;;
80201;SDS011;69521;54.454;9.928;2023-05-07T06:17:19;7.28;;;5.28;;
80201;SDS011;69521;54.454;9.928;2023-05-07T06:19:45;10.02;;;5.20;;
80201;SDS011;69521;54.454;9.928;2023-05-07T06:22:10;7.63;;;4.60;;
80201;SDS011;69521;54.454;9.928;2023-05-07T06:24:35;8.98;;;5.60;;
80201;SDS011;69521;54.454;9.928;2023-05-07T06:27:01;7.40;;;5.20;;
80201;SDS011;69521;54.454;9.928;2023-05-07T06:29:26;8.95;;;5.30;;
80201;SDS011;69521;54.454;9.928;2023-05-07T06:31:54;8.25;;;4.72;;
80201;SDS011;69521;54.454;9.928;2023-05-07T06:34:20;6.93;;;4.97;;
80201;SDS011;69521;54.454;9.928;2023-05-07T06:36:46;6.95;;;5.55;;
80201;SDS011;69521;54.454;9.928;2023-05-07T06:39:11;8.90;;;6.10;;
80201;SDS011;69521;54.454;9.928;2023-05-07T06:41:37;8.15;;;5.00;;
80201;SDS011;69521;54.454;9.928;2023-05-07T06:44:02;7.80;;;4.63;;
80201;SDS011;69521;54.454;9.928;2023-05-07T06:46:28;10.00;;;5.45;;
80201;SDS011;69521;54.454;9.928;2023-05-07T06:48:54;10.00;;;5.25;;
80201;SDS011;69521;54.454;9.928;2023-05-07T06:51:19;9.93;;;5.38;;
80201;SDS011;69521;54.454;9.928;2023-05-07T06:53:45;8.00;;;5.65;;
80201;SDS011;69521;54.454;9.928;2023-05-07T06:56:10;8.15;;;5.38;;
80201;SDS011;69521;54.454;9.928;2023-05-07T06:58:35;9.95;;;4.88;;
80201;SDS011;69521;54.454;9.928;2023-05-07T07:01:01;7.40;;;5.55;;
80201;SDS011;69521;54.454;9.928;2023-05-07T07:03:27;7.25;;;5.20;;
80201;SDS011;69521;54.454;9.928;2023-05-07T07:05:53;7.83;;;5.27;;
80201;SDS011;69521;54.454;9.928;2023-05-07T07:08:18;8.32;;;5.38;;
80201;SDS011;69521;54.454;9.928;2023-05-07T07:10:46;7.13;;;5.00;;
80201;SDS011;69521;54.454;9.928;2023-05-07T07:13:11;9.80;;;5.15;;
80201;SDS011;69521;54.454;9.928;2023-05-07T07:15:37;7.05;;;4.63;;
80201;SDS011;69521;54.454;9.928;2023-05-07T07:18:02;6.47;;;4.53;;
80201;SDS011;69521;54.454;9.928;2023-05-07T07:20:27;7.55;;;4.53;;
80201;SDS011;69521;54.454;9.928;2023-05-07T07:22:53;6.87;;;4.93;;
80201;SDS011;69521;54.454;9.928;2023-05-07T07:25:18;7.13;;;4.87;;
80201;SDS011;69521;54.454;9.928;2023-05-07T07:27:43;10.68;;;5.30;;
80201;SDS011;69521;54.454;9.928;2023-05-07T07:30:09;7.50;;;4.97;;
80201;SDS011;69521;54.454;9.928;2023-05-07T07:32:34;6.95;;;4.60;;
80201;SDS011;69521;54.454;9.928;2023-05-07T07:35:00;6.80;;;4.30;;
80201;SDS011;69521;54.454;9.928;2023-05-07T07:37:25;6.93;;;4.72;;
80201;SDS011;69521;54.454;9.928;2023-05-07T07:39:50;13.82;;;5.00;;
80201;SDS011;69521;54.454;9.928;2023-05-07T07:42:16;6.18;;;3.67;;
80201;SDS011;69521;54.454;9.928;2023-05-07T07:44:41;6.38;;;4.57;;
80201;SDS011;69521;54.454;9.928;2023-05-07T07:47:06;6.53;;;4.40;;
80201;SDS011;69521;54.454;9.928;2023-05-07T07:49:32;8.07;;;4.73;;
80201;SDS011;69521;54.454;9.928;2023-05-07T07:51:57;6.07;;;4.68;;
80201;SDS011;69521;54.454;9.928;2023-05-07T07:54:24;9.25;;;4.53;;
80201;SDS011;69521;54.454;9.928;2023-05-07T07:56:49;5.57;;;3.95;;
80201;SDS011;69521;54.454;9.928;2023-05-07T07:59:15;6.00;;;3.90;;
80201;SDS011;69521;54.454;9.928;2023-05-07T08:01:43;5.82;;;3.80;;
80201;SDS011;69521;54.454;9.928;2023-05-07T08:04:09;5.60;;;3.83;;
80201;SDS011;69521;54.454;9.928;2023-05-07T08:06:35;5.80;;;4.10;;
80201;SDS011;69521;54.454;9.928;2023-05-07T08:09:00;4.85;;;3.00;;
80201;SDS011;69521;54.454;9.928;2023-05-07T08:11:25;6.72;;;4.03;;
80201;SDS011;69521;54.454;9.928;2023-05-07T08:13:51;7.80;;;3.95;;
80201;SDS011;69521;54.454;9.928;2023-05-07T08:16:16;7.10;;;3.67;;
80201;SDS011;69521;54.454;9.928;2023-05-07T08:18:42;4.40;;;3.22;;
80201;SDS011;69521;54.454;9.928;2023-05-07T08:21:07;5.57;;;3.42;;
80201;SDS011;69521;54.454;9.928;2023-05-07T08:23:33;5.30;;;3.35;;
80201;SDS011;69521;54.454;9.928;2023-05-07T08:25:59;5.85;;;3.67;;
80201;SDS011;69521;54.454;9.928;2023-05-07T08:28:25;6.82;;;3.95;;
80201;SDS011;69521;54.454;9.928;2023-05-07T08:30:50;5.97;;;3.78;;
80201;SDS011;69521;54.454;9.928;2023-05-07T08:33:16;4.80;;;3.65;;
80201;SDS011;69521;54.454;9.928;2023-05-07T08:35:41;6.03;;;3.40;;
80201;SDS011;69521;54.454;9.928;2023-05-07T08:38:07;4.80;;;3.65;;
80201;SDS011;69521;54.454;9.928;2023-05-07T08:40:34;5.50;;;3.67;;
80201;SDS011;69521;54.454;9.928;2023-05-07T08:43:02;5.05;;;3.88;;
80201;SDS011;69521;54.454;9.928;2023-05-07T08:45:28;6.13;;;3.90;;
80201;SDS011;69521;54.454;9.928;2023-05-07T08:48:05;6.07;;;3.33;;
80201;SDS011;69521;54.454;9.928;2023-05-07T08:50:35;4.82;;;3.58;;
80201;SDS011;69521;54.454;9.928;2023-05-07T08:53:02;5.88;;;3.60;;
80201;SDS011;69521;54.454;9.928;2023-05-07T08:55:28;6.63;;;4.22;;
80201;SDS011;69521;54.454;9.928;2023-05-07T08:57:54;5.70;;;3.65;;
80201;SDS011;69521;54.454;9.928;2023-05-07T09:00:20;5.07;;;3.33;;
80201;SDS011;69521;54.454;9.928;2023-05-07T09:02:45;4.85;;;3.40;;
80201;SDS011;69521;54.454;9.928;2023-05-07T09:05:11;4.75;;;3.10;;
80201;SDS011;69521;54.454;9.928;2023-05-07T09:07:36;5.13;;;2.97;;
80201;SDS011;69521;54.454;9.928;2023-05-07T09:10:02;5.95;;;3.15;;
80201;SDS011;69521;54.454;9.928;2023-05-07T09:12:29;4.80;;;3.53;;
80201;SDS011;69521;54.454;9.928;2023-05-07T09:14:54;4.90;;;3.85;;
80201;SDS011;69521;54.454;9.928;2023-05-07T09:17:20;5.07;;;3.80;;
80201;SDS011;69521;54.454;9.928;2023-05-07T09:19:45;6.97;;;4.10;;
80201;SDS011;69521;54.454;9.928;2023-05-07T09:22:11;5.10;;;3.42;;
80201;SDS011;69521;54.454;9.928;2023-05-07T09:24:36;8.73;;;3.70;;
80201;SDS011;69521;54.454;9.928;2023-05-07T09:27:06;5.20;;;3.67;;
80201;SDS011;69521;54.454;9.928;2023-05-07T09:29:33;6.22;;;3.88;;
80201;SDS011;69521;54.454;9.928;2023-05-07T09:32:02;5.40;;;3.47;;
80201;SDS011;69521;54.454;9.928;2023-05-07T09:34:29;4.60;;;3.20;;
80201;SDS011;69521;54.454;9.928;2023-05-07T09:36:55;6.78;;;3.33;;
80201;SDS011;69521;54.454;9.928;2023-05-07T09:39:21;7.65;;;3.58;;
80201;SDS011;69521;54.454;9.928;2023-05-07T09:41:48;5.38;;;2.92;;
80201;SDS011;69521;54.454;9.928;2023-05-07T09:44:19;9.05;;;3.53;;
80201;SDS011;69521;54.454;9.928;2023-05-07T09:46:47;5.50;;;3.47;;
80201;SDS011;69521;54.454;9.928;2023-05-07T09:49:20;5.63;;;3.38;;
80201;SDS011;69521;54.454;9.928;2023-05-07T09:54:14;5.70;;;3.05;;
80201;SDS011;69521;54.454;9.928;2023-05-07T09:56:40;5.10;;;3.25;;
80201;SDS011;69521;54.454;9.928;2023-05-07T09:59:08;4.40;;;3.08;;
80201;SDS011;69521;54.454;9.928;2023-05-07T10:01:37;3.97;;;2.78;;
80201;SDS011;69521;54.454;9.928;2023-05-07T10:04:05;4.45;;;3.20;;
80201;SDS011;69521;54.454;9.928;2023-05-07T10:06:33;5.32;;;3.22;;
80201;SDS011;69521;54.454;9.928;2023-05-07T10:08:59;5.30;;;3.08;;
80201;SDS011;69521;54.454;9.928;2023-05-07T10:11:25;4.93;;;3.28;;
80201;SDS011;69521;54.454;9.928;2023-05-07T10:13:52;4.18;;;3.05;;
80201;SDS011;69521;54.454;9.928;2023-05-07T10:16:17;5.82;;;3.03;;
80201;SDS011;69521;54.454;9.928;2023-05-07T10:18:43;4.38;;;2.83;;
80201;SDS011;69521;54.454;9.928;2023-05-07T10:21:20;3.22;;;2.67;;
80201;SDS011;69521;54.454;9.928;2023-05-07T10:23:52;3.92;;;2.85;;
80201;SDS011;69521;54.454;9.928;2023-05-07T10:26:23;4.47;;;2.80;;
80201;SDS011;69521;54.454;9.928;2023-05-07T10:28:52;4.90;;;2.95;;
80201;SDS011;69521;54.454;9.928;2023-05-07T10:31:28;4.18;;;2.78;;
80201;SDS011;69521;54.454;9.928;2023-05-07T10:33:57;4.15;;;2.72;;
80201;SDS011;69521;54.454;9.928;2023-05-07T10:36:24;6.65;;;2.85;;
80201;SDS011;69521;54.454;9.928;2023-05-07T10:38:51;4.15;;;3.10;;
80201;SDS011;69521;54.454;9.928;2023-05-07T10:41:17;4.13;;;3.08;;
80201;SDS011;69521;54.454;9.928;2023-05-07T10:43:44;4.32;;;2.70;;
80201;SDS011;69521;54.454;9.928;2023-05-07T10:51:27;4.07;;;2.70;;
80201;SDS011;69521;54.454;9.928;2023-05-07T10:56:42;4.05;;;2.95;;
80201;SDS011;69521;54.454;9.928;2023-05-07T11:01:56;2.90;;;2.28;;
80201;SDS011;69521;54.454;9.928;2023-05-07T11:04:28;5.78;;;2.67;;
80201;SDS011;69521;54.454;9.928;2023-05-07T11:15:43;5.50;;;2.40;;
80201;SDS011;69521;54.454;9.928;2023-05-07T11:18:00;3.42;;;2.03;;
80201;SDS011;69521;54.454;9.928;2023-05-07T11:26:03;5.18;;;2.72;;
80201;SDS011;69521;54.454;9.928;2023-05-07T11:28:30;5.45;;;2.50;;
80201;SDS011;69521;54.454;9.928;2023-05-07T11:30:56;3.95;;;2.42;;
80201;SDS011;69521;54.454;9.928;2023-05-07T11:33:23;3.05;;;1.92;;
80201;SDS011;69521;54.454;9.928;2023-05-07T11:35:53;3.35;;;2.13;;
80201;SDS011;69521;54.454;9.928;2023-05-07T11:38:19;3.17;;;1.95;;
80201;SDS011;69521;54.454;9.928;2023-05-07T11:40:51;2.38;;;1.67;;
80201;SDS011;69521;54.454;9.928;2023-05-07T11:43:17;3.28;;;2.00;;
80201;SDS011;69521;54.454;9.928;2023-05-07T11:45:42;3.17;;;2.22;;
80201;SDS011;69521;54.454;9.928;2023-05-07T11:48:09;5.88;;;2.60;;
80201;SDS011;69521;54.454;9.928;2023-05-07T11:50:34;4.53;;;2.30;;
80201;SDS011;69521;54.454;9.928;2023-05-07T11:52:59;5.15;;;2.20;;
80201;SDS011;69521;54.454;9.928;2023-05-07T11:55:25;3.60;;;2.17;;
80201;SDS011;69521;54.454;9.928;2023-05-07T11:57:51;4.13;;;2.60;;
80201;SDS011;69521;54.454;9.928;2023-05-07T12:00:16;2.72;;;1.92;;
80201;SDS011;69521;54.454;9.928;2023-05-07T12:02:43;5.38;;;2.22;;
80201;SDS011;69521;54.454;9.928;2023-05-07T12:05:10;2.55;;;1.88;;
80201;SDS011;69521;54.454;9.928;2023-05-07T12:07:35;3.15;;;1.80;;
80201;SDS011;69521;54.454;9.928;2023-05-07T12:10:05;3.67;;;1.63;;
80201;SDS011;69521;54.454;9.928;2023-05-07T12:12:37;4.63;;;2.22;;
80201;SDS011;69521;54.454;9.928;2023-05-07T12:15:10;3.47;;;1.92;;
80201;SDS011;69521;54.454;9.928;2023-05-07T12:17:36;5.13;;;2.33;;
80201;SDS011;69521;54.454;9.928;2023-05-07T12:20:02;3.63;;;2.30;;
80201;SDS011;69521;54.454;9.928;2023-05-07T12:22:27;4.90;;;2.40;;
80201;SDS011;69521;54.454;9.928;2023-05-07T12:24:56;4.35;;;2.25;;
80201;SDS011;69521;54.454;9.928;2023-05-07T12:27:23;3.97;;;2.63;;
80201;SDS011;69521;54.454;9.928;2023-05-07T12:29:49;6.70;;;2.50;;
80201;SDS011;69521;54.454;9.928;2023-05-07T12:32:19;4.70;;;2.20;;
80201;SDS011;69521;54.454;9.928;2023-05-07T12:34:46;4.35;;;2.75;;
80201;SDS011;69521;54.454;9.928;2023-05-07T12:37:14;5.07;;;2.65;;
80201;SDS011;69521;54.454;9.928;2023-05-07T12:39:49;3.75;;;2.38;;
80201;SDS011;69521;54.454;9.928;2023-05-07T12:42:29;5.85;;;2.40;;
80201;SDS011;69521;54.454;9.928;2023-05-07T12:45:00;3.70;;;2.08;;
80201;SDS011;69521;54.454;9.928;2023-05-07T12:47:32;5.20;;;2.63;;
80201;SDS011;69521;54.454;9.928;2023-05-07T12:49:58;5.05;;;2.70;;
80201;SDS011;69521;54.454;9.928;2023-05-07T12:52:24;6.95;;;3.00;;
80201;SDS011;69521;54.454;9.928;2023-05-07T12:54:50;7.28;;;3.05;;
80201;SDS011;69521;54.454;9.928;2023-05-07T12:57:15;7.13;;;3.30;;
80201;SDS011;69521;54.454;9.928;2023-05-07T12:59:44;6.15;;;2.60;;
80201;SDS011;69521;54.454;9.928;2023-05-07T13:02:09;6.50;;;2.95;;
80201;SDS011;69521;54.454;9.928;2023-05-07T13:04:35;6.45;;;2.92;;
80201;SDS011;69521;54.454;9.928;2023-05-07T13:07:01;7.63;;;2.92;;
80201;SDS011;69521;54.454;9.928;2023-05-07T13:09:27;4.78;;;2.80;;
80201;SDS011;69521;54.454;9.928;2023-05-07T13:11:54;6.30;;;2.88;;
80201;SDS011;69521;54.454;9.928;2023-05-07T13:14:19;5.25;;;2.67;;
80201;SDS011;69521;54.454;9.928;2023-05-07T13:16:46;6.20;;;2.58;;
80201;SDS011;69521;54.454;9.928;2023-05-07T13:19:14;6.05;;;2.55;;
80201;SDS011;69521;54.454;9.928;2023-05-07T13:21:39;6.80;;;2.72;;
80201;SDS011;69521;54.454;9.928;2023-05-07T13:24:05;4.47;;;2.13;;
80201;SDS011;69521;54.454;9.928;2023-05-07T13:26:31;4.47;;;2.88;;
80201;SDS011;69521;54.454;9.928;2023-05-07T13:28:56;5.35;;;3.53;;
80201;SDS011;69521;54.454;9.928;2023-05-07T13:31:22;10.18;;;3.50;;
80201;SDS011;69521;54.454;9.928;2023-05-07T13:33:47;6.10;;;2.70;;
80201;SDS011;69521;54.454;9.928;2023-05-07T13:36:13;8.63;;;3.20;;
80201;SDS011;69521;54.454;9.928;2023-05-07T13:38:39;5.72;;;3.55;;
80201;SDS011;69521;54.454;9.928;2023-05-07T13:41:04;6.63;;;3.40;;
80201;SDS011;69521;54.454;9.928;2023-05-07T13:43:30;7.35;;;3.50;;
80201;SDS011;69521;54.454;9.928;2023-05-07T13:45:56;7.20;;;3.50;;
80201;SDS011;69521;54.454;9.928;2023-05-07T13:48:22;8.88;;;4.00;;
80201;SDS011;69521;54.454;9.928;2023-05-07T13:50:47;5.47;;;2.97;;
80201;SDS011;69521;54.454;9.928;2023-05-07T13:53:12;10.13;;;4.35;;
80201;SDS011;69521;54.454;9.928;2023-05-07T13:55:40;8.45;;;3.83;;
80201;SDS011;69521;54.454;9.928;2023-05-07T13:58:05;6.75;;;4.10;;
80201;SDS011;69521;54.454;9.928;2023-05-07T14:00:31;5.47;;;3.67;;
80201;SDS011;69521;54.454;9.928;2023-05-07T14:02:56;9.00;;;3.42;;
80201;SDS011;69521;54.454;9.928;2023-05-07T14:05:22;6.57;;;3.78;;
80201;SDS011;69521;54.454;9.928;2023-05-07T14:07:49;7.78;;;3.40;;
80201;SDS011;69521;54.454;9.928;2023-05-07T14:10:16;8.38;;;3.40;;
80201;SDS011;69521;54.454;9.928;2023-05-07T14:12:43;6.63;;;3.25;;
80201;SDS011;69521;54.454;9.928;2023-05-07T14:15:09;8.18;;;3.22;;
80201;SDS011;69521;54.454;9.928;2023-05-07T14:17:35;6.93;;;3.10;;
80201;SDS011;69521;54.454;9.928;2023-05-07T14:20:01;7.60;;;3.45;;
80201;SDS011;69521;54.454;9.928;2023-05-07T14:22:26;5.75;;;3.53;;
80201;SDS011;69521;54.454;9.928;2023-05-07T14:24:51;6.50;;;3.33;;
80201;SDS011;69521;54.454;9.928;2023-05-07T14:27:17;7.60;;;4.18;;
80201;SDS011;69521;54.454;9.928;2023-05-07T14:29:42;5.65;;;2.95;;
80201;SDS011;69521;54.454;9.928;2023-05-07T14:32:08;8.20;;;3.45;;
80201;SDS011;69521;54.454;9.928;2023-05-07T14:34:33;5.55;;;3.60;;
80201;SDS011;69521;54.454;9.928;2023-05-07T14:36:59;6.25;;;4.43;;
80201;SDS011;69521;54.454;9.928;2023-05-07T14:39:25;8.20;;;3.58;;
80201;SDS011;69521;54.454;9.928;2023-05-07T14:41:50;4.35;;;3.28;;
80201;SDS011;69521;54.454;9.928;2023-05-07T14:44:16;6.75;;;3.58;;
80201;SDS011;69521;54.454;9.928;2023-05-07T14:46:41;6.60;;;3.50;;
80201;SDS011;69521;54.454;9.928;2023-05-07T14:49:07;6.80;;;3.80;;
80201;SDS011;69521;54.454;9.928;2023-05-07T14:51:41;10.10;;;3.97;;
80201;SDS011;69521;54.454;9.928;2023-05-07T14:54:06;7.00;;;3.80;;
80201;SDS011;69521;54.454;9.928;2023-05-07T14:56:32;7.80;;;3.90;;
80201;SDS011;69521;54.454;9.928;2023-05-07T14:58:57;6.40;;;4.18;;
80201;SDS011;69521;54.454;9.928;2023-05-07T15:01:22;6.45;;;3.80;;
80201;SDS011;69521;54.454;9.928;2023-05-07T15:03:48;6.13;;;3.40;;